Time;durP1;ratioP1;P1;durP2;ratioP2;P2;SDS_P1;SDS_P2;PMS_P1;PMS_P2;Temp;Humidity;BMP_temperature;BMP_pressure;BME280_temperature;BME280_humidity;BME280_pressure;Samples;Min_cycle;Max_cycle;Signal;HPM_P1;HPM_P2
2022/12/05 00:01:23;;;;;;;2.70;2.00;;;;;;;21.76;28.28;102035.16;104414;1289;69144;-89
2022/12/05 00:03:52;;;;;;;2.40;1.90;;;;;;;21.76;28.06;102032.25;107041;1287;66539;-92
2022/12/05 00:06:18;;;;;;;2.50;2.10;;;;;;;21.76;28.18;102027.95;106921;1275;74226;-90
2022/12/05 00:08:44;;;;;;;2.20;2.00;;;;;;;21.77;28.12;102028.89;106864;1285;68098;-89
2022/12/05 00:11:15;;;;;;;1.90;1.60;;;;;;;21.78;28.19;102025.62;105882;1280;69232;-90
2022/12/05 00:13:41;;;;;;;;;;;;;;;21.79;28.07;102025.74;104895;1291;69196;-89
2022/12/05 00:16:08;;;;;;;2.20;1.70;;;;;;;21.77;28.14;102028.02;107048;1292;66471;-90
2022/12/05 00:18:34;;;;;;;2.50;1.80;;;;;;;21.79;28.17;102031.54;107008;1288;74428;-90
2022/12/05 00:20:59;;;;;;;2.90;1.80;;;;;;;21.80;28.21;102037.70;107173;1287;66608;-90
2022/12/05 00:23:25;;;;;;;2.80;2.00;;;;;;;21.81;28.11;102035.15;104926;1295;69215;-89
2022/12/05 00:25:50;;;;;;;2.50;1.80;;;;;;;21.81;28.10;102037.38;107404;1284;66651;-90
2022/12/05 00:28:16;;;;;;;2.80;1.90;;;;;;;21.82;28.16;102039.90;104705;1287;69217;-90
2022/12/05 00:30:41;;;;;;;2.00;1.80;;;;;;;21.84;28.16;102043.31;104353;1287;69208;-93
2022/12/05 00:33:07;;;;;;;2.10;1.90;;;;;;;21.84;28.09;102039.11;104016;1294;69135;-89
2022/12/05 00:35:35;;;;;;;2.20;1.90;;;;;;;21.83;27.97;102034.55;105994;1285;69246;-90
2022/12/05 00:38:01;;;;;;;2.00;1.80;;;;;;;21.84;28.09;102027.59;107102;1285;66660;-90
2022/12/05 00:40:26;;;;;;;1.80;1.60;;;;;;;21.83;28.06;102028.75;107028;1292;66508;-90
2022/12/05 00:42:52;;;;;;;1.60;1.50;;;;;;;21.83;28.01;102025.52;107032;1280;66397;-87
2022/12/05 00:45:17;;;;;;;2.50;1.80;;;;;;;21.84;27.95;102023.09;104709;1288;69124;-89
2022/12/05 00:47:43;;;;;;;2.20;1.70;;;;;;;21.84;28.04;102024.98;104834;1295;69078;-89
2022/12/05 00:50:08;;;;;;;2.70;1.70;;;;;;;21.84;28.00;102020.17;104721;1281;69185;-89
2022/12/05 00:52:34;;;;;;;1.70;1.60;;;;;;;21.85;27.97;102022.23;104626;1292;69288;-88
2022/12/05 00:54:59;;;;;;;3.50;1.60;;;;;;;21.84;27.89;102021.70;104539;1292;69180;-89
2022/12/05 00:57:25;;;;;;;1.80;1.70;;;;;;;21.84;27.95;102028.63;104416;1291;69229;-92
2022/12/05 00:59:51;;;;;;;2.30;1.60;;;;;;;21.84;27.97;102025.65;104619;1288;67040;-88
2022/12/05 01:02:17;;;;;;;1.90;1.60;;;;;;;21.83;27.90;102025.98;104668;1292;69082;-89
2022/12/05 01:04:42;;;;;;;2.90;1.70;;;;;;;21.83;28.02;102020.71;104686;1286;69268;-89
2022/12/05 01:07:08;;;;;;;1.90;1.60;;;;;;;21.83;28.05;102019.58;104734;1288;69150;-89
2022/12/05 01:09:33;;;;;;;2.60;1.90;;;;;;;21.83;27.90;102017.68;104693;1291;69028;-92
2022/12/05 01:11:59;;;;;;;3.00;1.90;;;;;;;21.83;28.04;102016.14;104543;1293;82191;-88
2022/12/05 01:14:25;;;;;;;2.20;1.90;;;;;;;21.83;27.98;102014.34;104562;1292;69269;-89
2022/12/05 01:16:52;;;;;;;2.60;1.80;;;;;;;21.83;27.90;102016.95;104496;1285;69201;-88
2022/12/05 01:19:28;;;;;;;2.20;1.70;;;;;;;21.82;27.86;102015.67;104673;1287;69369;-89
2022/12/05 01:21:54;;;;;;;2.60;1.90;;;;;;;21.82;27.89;102011.04;104773;1292;74410;-89
2022/12/05 01:24:20;;;;;;;2.00;1.80;;;;;;;21.81;27.93;102010.73;104325;1287;69298;-92
2022/12/05 01:26:47;;;;;;;2.40;2.00;;;;;;;21.81;27.94;102008.32;104604;1288;69148;-88
2022/12/05 01:29:13;;;;;;;2.30;2.10;;;;;;;21.81;27.94;102005.91;104510;1288;69077;-88
2022/12/05 01:31:39;;;;;;;2.20;2.00;;;;;;;21.81;27.86;102009.70;104678;1285;69271;-89
2022/12/05 01:34:08;;;;;;;2.40;2.00;;;;;;;21.81;28.03;102004.95;104762;1296;69203;-88
2022/12/05 01:36:33;;;;;;;2.30;2.10;;;;;;;21.81;28.01;102003.18;104675;1296;82360;-88
2022/12/05 01:38:59;;;;;;;3.60;2.30;;;;;;;21.81;27.93;102004.05;104548;1295;69163;-89
2022/12/05 01:41:34;;;;;;;2.40;2.20;;;;;;;21.82;27.90;102002.33;104324;1292;69180;-88
2022/12/05 01:44:12;;;;;;;2.80;2.40;;;;;;;21.82;27.91;101998.80;104699;1288;69236;-89
2022/12/05 01:46:42;;;;;;;2.70;2.40;;;;;;;21.81;28.00;101998.67;104802;1292;75376;-89
2022/12/05 01:49:12;;;;;;;3.00;2.20;;;;;;;21.82;27.94;101996.23;104614;1295;82077;-89
2022/12/05 01:51:39;;;;;;;2.90;2.40;;;;;;;21.81;27.86;101999.29;104777;1295;73331;-89
2022/12/05 01:54:05;;;;;;;2.40;2.20;;;;;;;21.81;27.91;101997.20;104484;1288;69159;-89
2022/12/05 01:56:31;;;;;;;3.00;2.30;;;;;;;21.82;27.90;101996.14;104608;1288;69105;-89
2022/12/05 01:58:57;;;;;;;2.90;2.40;;;;;;;21.82;27.79;101994.85;104319;1288;69293;-89
2022/12/05 02:01:22;;;;;;;2.90;2.40;;;;;;;21.82;27.78;101999.92;104680;1288;69235;-89
2022/12/05 02:03:49;;;;;;;2.90;2.50;;;;;;;21.82;27.88;101997.27;104769;1288;69160;-89
2022/12/05 02:06:15;;;;;;;3.00;2.50;;;;;;;21.82;27.88;101992.65;104420;1288;69550;-93
2022/12/05 02:08:40;;;;;;;2.70;2.30;;;;;;;21.81;27.84;101993.26;104709;1294;69275;-89
2022/12/05 02:11:06;;;;;;;2.90;2.20;;;;;;;21.82;27.80;101989.13;104771;1289;69195;-89
2022/12/05 02:14:18;;;;;;;3.40;2.20;;;;;;;21.82;27.89;101989.68;104655;1293;69256;-88
2022/12/05 02:16:54;;;;;;;4.50;2.20;;;;;;;21.82;27.81;101984.46;104169;1300;69094;-89
2022/12/05 02:19:31;;;;;;;3.20;2.40;;;;;;;21.82;27.85;101989.27;104132;1301;69324;-89
2022/12/05 02:22:35;;;;;;;3.70;2.20;;;;;;;21.82;27.72;101986.96;104462;1292;75537;-89
2022/12/05 02:25:19;;;;;;;2.90;2.30;;;;;;;21.82;27.74;101981.89;104840;1285;82102;-89
2022/12/05 02:28:07;;;;;;;2.60;2.10;;;;;;;21.82;27.83;101984.86;104699;1291;72542;-89
2022/12/05 02:31:11;;;;;;;3.00;2.10;;;;;;;21.82;27.75;101979.38;104445;1291;364533;-89
2022/12/05 02:33:51;;;;;;;2.90;2.10;;;;;;;21.82;27.87;101978.10;104521;1295;69087;-89
2022/12/05 02:36:22;;;;;;;3.30;2.30;;;;;;;21.82;27.80;101977.29;104561;1294;74548;-90
2022/12/05 02:39:10;;;;;;;2.80;2.20;;;;;;;21.81;27.75;101977.73;104580;1288;82118;-89
2022/12/05 02:41:39;;;;;;;2.40;2.20;;;;;;;21.81;27.78;101976.50;104351;1294;72670;-89
2022/12/05 02:44:13;;;;;;;2.30;2.00;;;;;;;21.81;27.76;101979.88;104719;1293;69156;-88
2022/12/05 02:46:39;;;;;;;2.40;2.10;;;;;;;21.82;27.84;101978.81;104813;1293;69567;-89
2022/12/05 02:49:08;;;;;;;3.00;2.10;;;;;;;21.82;27.70;101981.22;104905;1289;69315;-89
2022/12/05 02:51:36;;;;;;;2.90;2.10;;;;;;;21.82;27.81;101983.29;104388;1292;83258;-89
2022/12/05 02:54:07;;;;;;;2.20;2.00;;;;;;;21.83;27.81;101983.91;104462;1288;72525;-90
2022/12/05 02:56:33;;;;;;;2.30;2.00;;;;;;;21.83;27.77;101981.16;104600;1285;69150;-89
2022/12/05 02:58:58;;;;;;;3.10;2.20;;;;;;;21.83;27.76;101985.05;104744;1295;69292;-89
2022/12/05 03:01:26;;;;;;;2.70;2.10;;;;;;;21.83;27.57;101984.95;104509;1291;69164;-89
2022/12/05 03:03:52;;;;;;;2.20;1.90;;;;;;;21.84;27.55;101988.23;104737;1289;69085;-89
2022/12/05 03:06:24;;;;;;;2.70;2.20;;;;;;;21.84;27.68;101984.85;104518;1292;69259;-90
2022/12/05 03:09:28;;;;;;;2.30;2.10;;;;;;;21.84;27.58;101983.78;104787;1292;69105;-88
2022/12/05 03:12:17;;;;;;;2.20;2.00;;;;;;;21.83;27.68;101985.10;104287;1291;69192;-89
2022/12/05 03:14:45;;;;;;;3.50;2.00;;;;;;;21.83;27.61;101988.73;104507;1286;74316;-89
2022/12/05 03:17:17;;;;;;;2.80;2.20;;;;;;;21.84;27.56;101989.36;104715;1292;83079;-89
2022/12/05 03:19:55;;;;;;;2.30;2.10;;;;;;;21.84;27.52;101992.09;104592;1287;72484;-89
2022/12/05 03:22:27;;;;;;;3.10;2.30;;;;;;;21.84;27.68;101991.11;104655;1295;69148;-88
2022/12/05 03:24:52;;;;;;;3.30;2.40;;;;;;;21.84;27.34;101994.90;104901;1291;69035;-88
2022/12/05 03:27:31;;;;;;;2.70;2.00;;;;;;;21.84;27.68;101993.83;104704;1294;69141;-89
2022/12/05 03:30:07;;;;;;;2.50;2.10;;;;;;;21.84;27.55;101989.88;104615;1291;82904;-92
2022/12/05 03:32:48;;;;;;;2.70;2.40;;;;;;;21.84;27.44;101988.51;104436;1288;72452;-89
2022/12/05 03:35:55;;;;;;;2.70;2.20;;;;;;;21.85;27.57;101989.23;104728;1280;69134;-88
2022/12/05 03:38:29;;;;;;;4.10;2.10;;;;;;;21.84;27.62;101993.66;104707;1292;69169;-88
2022/12/05 03:41:15;;;;;;;2.70;2.20;;;;;;;21.84;27.57;101992.59;104825;1285;74506;-88
2022/12/05 03:44:12;;;;;;;3.60;2.30;;;;;;;21.84;27.54;101991.77;104563;1288;82035;-88
2022/12/05 03:46:52;;;;;;;7.00;2.80;;;;;;;21.83;27.44;101989.24;104908;1288;73329;-89
2022/12/05 03:49:23;;;;;;;5.00;2.50;;;;;;;21.81;27.34;101986.49;104837;1294;69078;-89
2022/12/05 03:51:51;;;;;;;;;;;;;;;21.81;27.47;101983.30;104708;1295;69232;-89
2022/12/05 03:54:25;;;;;;;3.80;2.60;;;;;;;21.79;27.44;101981.11;104757;1288;75366;-89
2022/12/05 03:57:15;;;;;;;4.40;2.50;;;;;;;21.80;27.54;101979.39;104795;1292;82296;-93
2022/12/05 03:59:50;;;;;;;4.00;2.20;;;;;;;21.81;27.54;101976.95;104565;1293;72420;-89
2022/12/05 04:02:23;;;;;;;6.00;2.80;;;;;;;21.80;27.47;101976.84;104829;1290;69164;-88
2022/12/05 04:04:55;;;;;;;8.50;2.90;;;;;;;21.81;27.46;101976.23;104854;1289;69182;-88
2022/12/05 04:07:20;;;;;;;5.30;2.60;;;;;;;21.80;27.25;101974.58;104939;1300;75527;-89
2022/12/05 04:09:58;;;;;;;4.10;2.70;;;;;;;21.80;27.24;101972.22;104939;1294;69211;-89
2022/12/05 04:12:26;;;;;;;4.80;3.10;;;;;;;21.80;27.21;101973.70;104723;1291;72297;-89
2022/12/05 04:14:57;;;;;;;6.40;2.80;;;;;;;21.77;27.40;101976.02;104832;1294;69314;-92
2022/12/05 04:17:26;;;;;;;;;;;;;;;21.73;27.68;101976.03;104804;1294;69074;-89
2022/12/05 04:22:36;;;;;;;44.60;6.00;;;;;;;21.61;27.91;101973.10;104956;1285;82034;-88
2022/12/05 05:25:27;;;;;;;9.00;3.10;;;;;;;21.66;27.24;101987.52;106828;1278;72536;-94
2022/12/05 05:30:40;;;;;;;5.70;3.00;;;;;;;21.65;27.38;101988.67;106364;1284;67697;-91
2022/12/05 05:33:06;;;;;;;10.30;3.20;;;;;;;21.65;27.45;101986.67;105849;1285;66652;-92
2022/12/05 05:37:57;;;;;;;16.10;3.60;;;;;;;21.63;27.15;101989.83;105844;1292;68434;-90
2022/12/05 05:40:27;;;;;;;10.80;3.50;;;;;;;21.64;27.31;101987.21;105741;1288;69048;-87
2022/12/05 05:42:52;;;;;;;7.80;3.10;;;;;;;21.65;27.30;101992.48;105832;1291;74588;-87
2022/12/05 05:45:18;;;;;;;12.40;2.50;;;;;;;21.67;27.60;101989.23;105644;1291;69299;-88
2022/12/05 05:47:44;;;;;;;83.10;8.40;;;;;;;21.71;28.04;101990.14;105528;1288;69118;-89
2022/12/05 06:05:19;;;;;;;23.50;4.60;;;;;;;21.88;28.97;101996.55;106196;1285;69132;-91
2022/12/05 06:07:47;;;;;;;17.60;4.60;;;;;;;21.86;28.97;101996.08;106084;1291;69017;-91
2022/12/05 06:10:13;;;;;;;19.90;4.90;;;;;;;21.84;28.92;101993.93;105717;1284;69057;-89
2022/12/05 06:12:39;;;;;;;20.60;5.20;;;;;;;21.83;28.75;101993.44;105639;1288;69143;-91
2022/12/05 06:15:05;;;;;;;23.80;5.40;;;;;;;21.80;28.71;101996.45;105748;1295;69290;-89
2022/12/05 06:17:31;;;;;;;20.70;6.90;;;;;;;21.78;28.47;101996.79;105742;1291;67600;-85
2022/12/05 06:19:57;;;;;;;18.60;7.60;;;;;;;21.77;28.42;101997.48;105795;1287;69122;-92
2022/12/05 06:22:22;;;;;;;20.40;7.70;;;;;;;21.76;28.52;101993.61;106138;1290;82336;-91
2022/12/05 06:24:51;;;;;;;50.70;9.50;;;;;;;21.74;28.48;101997.27;106614;1287;66834;-94
2022/12/05 06:30:19;;;;;;;36.70;7.10;;;;;;;21.71;28.70;102006.26;106584;1268;67308;-92
2022/12/05 06:32:48;;;;;;;33.20;6.20;;;;;;;21.72;28.70;102007.81;106631;1288;68907;-93
2022/12/05 06:43:59;;;;;;;21.00;6.10;;;;;;;21.74;28.68;101996.27;106185;1285;66512;-93
2022/12/05 06:52:28;;;;;;;20.40;8.80;;;;;;;21.68;28.21;101992.77;106885;1275;71363;-92
2022/12/05 07:16:20;;;;;;;25.10;11.60;;;;;;;21.70;27.90;102010.49;106688;1276;74732;-91
2022/12/05 07:18:45;;;;;;;20.20;11.00;;;;;;;21.70;28.04;102014.19;106531;1278;67582;-93
2022/12/05 07:24:13;;;;;;;17.50;11.00;;;;;;;21.71;27.80;102015.90;106945;1284;66491;-92
2022/12/05 08:48:42;;;;;;;24.50;6.30;;;;;;;21.73;27.27;102049.23;106807;1276;80767;-93
2022/12/05 09:06:30;;;;;;;38.90;8.80;;;;;;;21.69;27.86;102022.20;106606;1281;71316;31
2022/12/05 09:26:57;;;;;;;25.40;8.20;;;;;;;21.79;27.87;102000.53;106512;1285;66895;-92
2022/12/05 09:29:40;;;;;;;23.70;8.30;;;;;;;21.81;27.81;101990.16;106076;1288;66689;-90
2022/12/05 09:32:05;;;;;;;26.20;7.60;;;;;;;21.81;27.98;101987.66;106175;1284;82184;-91
2022/12/05 09:34:31;;;;;;;28.80;7.40;;;;;;;21.83;27.96;101987.70;106139;1287;67171;-92
2022/12/05 09:36:56;;;;;;;27.70;7.80;;;;;;;21.83;27.92;101983.81;106275;1293;67103;-93
2022/12/05 09:39:22;;;;;;;26.40;8.00;;;;;;;21.84;27.88;101978.20;106365;1287;66462;-92
2022/12/05 09:48:05;;;;;;;24.50;7.10;;;;;;;21.84;28.04;101968.77;106655;1276;67105;-92
2022/12/05 09:50:33;;;;;;;17.90;6.70;;;;;;;21.86;28.23;101966.04;106481;1288;66754;-94
2022/12/05 09:53:09;;;;;;;25.70;6.60;;;;;;;21.87;28.12;101963.66;106379;1292;74735;-91
2022/12/05 10:22:56;;;;;;;23.20;12.80;;;;;;;21.72;28.61;101934.15;105598;1275;1406926;31
2022/12/05 10:27:57;;;;;;;149.80;20.10;;;;;;;21.66;28.69;101929.53;106109;1285;71991;-92
2022/12/05 10:30:27;;;;;;;136.90;18.90;;;;;;;21.63;28.71;101930.08;106297;1291;67680;-92
2022/12/05 10:33:01;;;;;;;117.50;15.90;;;;;;;21.61;28.77;101927.68;105925;1288;69099;-90
2022/12/05 10:35:35;;;;;;;127.80;15.40;;;;;;;21.60;28.60;101929.89;106193;1285;74456;-92
2022/12/05 10:40:53;;;;;;;67.40;12.80;;;;;;;21.60;28.64;101924.41;106484;1285;72243;-89
2022/12/05 10:43:27;;;;;;;78.30;13.00;;;;;;;21.61;28.74;101923.58;106296;1285;69227;-91
2022/12/05 10:45:53;;;;;;;74.30;12.90;;;;;;;21.62;28.68;101915.16;106536;1289;69141;-90
2022/12/05 10:48:19;;;;;;;65.00;12.00;;;;;;;21.63;28.69;101910.27;106583;1288;67881;-88
2022/12/05 10:50:47;;;;;;;79.10;11.90;;;;;;;21.65;28.66;101907.85;106661;1285;68113;-89
2022/12/05 11:11:27;;;;;;;41.90;8.40;;;;;;;21.79;29.04;101890.95;106611;1284;66019;-91
2022/12/05 11:14:22;;;;;;;;;;;;;;;21.79;28.98;101885.50;106368;1294;67968;-90
2022/12/05 11:16:53;;;;;;;31.10;7.20;;;;;;;21.79;29.09;101887.66;106430;1291;74471;-90
2022/12/05 11:22:39;;;;;;;31.40;7.00;;;;;;;21.80;29.14;101882.30;105965;1288;71428;31
2022/12/05 11:27:41;;;;;;;18.80;7.00;;;;;;;21.80;29.24;101873.04;106603;1284;69112;-91
2022/12/05 11:30:20;;;;;;;21.10;6.60;;;;;;;21.76;29.04;101867.69;106064;1285;66404;-92
2022/12/05 11:33:20;;;;;;;14.20;5.80;;;;;;;21.66;29.04;101866.89;106359;1278;82085;-93
2022/12/05 11:38:35;;;;;;;16.60;5.90;;;;;;;21.50;29.05;101857.41;105722;1276;1435683;-91
2022/12/05 11:47:33;;;;;;;15.20;5.80;;;;;;;21.40;28.87;101848.42;106750;1278;79962;31
2022/12/05 11:59:30;;;;;;;15.80;6.50;;;;;;;21.42;28.84;101832.85;106615;1275;73514;-91
2022/12/05 12:02:48;;;;;;;28.60;7.30;;;;;;;21.40;28.91;101827.34;106454;1274;82058;31
2022/12/05 12:05:24;;;;;;;23.20;9.20;;;;;;;21.36;28.75;101823.83;106341;1279;72512;-91
2022/12/05 12:11:54;;;;;;;19.60;7.40;;;;;;;21.32;28.88;101821.23;106590;1285;67699;-91
2022/12/05 12:17:36;;;;;;;23.40;6.80;;;;;;;21.35;28.84;101820.63;106992;1276;80216;-92
2022/12/05 12:20:08;;;;;;;16.30;7.40;;;;;;;21.37;28.70;101818.09;105930;1271;72454;-91
2022/12/05 12:22:37;;;;;;;24.20;7.90;;;;;;;21.38;28.69;101821.01;105563;1291;66806;-91
2022/12/05 12:25:14;;;;;;;24.30;7.90;;;;;;;21.38;28.70;101820.44;105458;1291;69066;-91
2022/12/05 12:28:00;;;;;;;20.10;6.70;;;;;;;21.33;28.67;101821.65;105118;1291;74255;-91
2022/12/05 12:30:38;;;;;;;18.30;5.80;;;;;;;21.28;28.62;101821.20;105269;1293;82120;-90
2022/12/05 12:33:21;;;;;;;16.40;6.30;;;;;;;21.25;28.62;101817.88;105198;1288;73813;-90
2022/12/05 12:36:09;;;;;;;16.10;5.80;;;;;;;21.23;28.57;101816.45;105076;1295;69035;-90
2022/12/05 12:38:48;;;;;;;18.20;5.40;;;;;;;21.24;28.78;101815.63;105071;1293;69205;-90
2022/12/05 12:41:36;;;;;;;15.70;5.70;;;;;;;21.24;28.62;101808.46;105095;1286;74702;-91
2022/12/05 12:44:04;;;;;;;18.70;6.50;;;;;;;21.23;28.75;101811.47;105196;1287;82088;-91
2022/12/05 12:46:52;;;;;;;22.30;6.10;;;;;;;21.24;28.64;101809.80;105595;1285;72372;-91
2022/12/05 12:49:27;;;;;;;15.90;6.30;;;;;;;21.26;28.69;101813.92;105687;1282;69188;-91
2022/12/05 12:52:04;;;;;;;15.90;5.80;;;;;;;21.28;28.64;101809.19;106146;1291;67719;-91
2022/12/05 12:55:00;;;;;;;15.30;6.20;;;;;;;21.32;28.67;101809.56;105757;1292;74514;-91
2022/12/05 12:57:41;;;;;;;19.00;5.70;;;;;;;21.36;28.67;101805.44;105280;1292;82355;-91
2022/12/05 13:00:25;;;;;;;17.00;5.50;;;;;;;21.40;28.75;101801.46;105490;1279;72462;-92
2022/12/05 13:02:57;;;;;;;14.80;5.40;;;;;;;21.43;28.56;101798.50;105641;1294;67229;-91
2022/12/05 13:05:33;;;;;;;16.80;5.60;;;;;;;21.47;28.72;101795.91;105108;1285;68979;-91
2022/12/05 13:08:03;;;;;;;11.30;5.10;;;;;;;21.50;28.65;101797.77;105152;1277;74582;-91
2022/12/05 13:10:42;;;;;;;13.10;5.80;;;;;;;21.53;28.48;101799.66;105343;1292;82880;-90
2022/12/05 13:13:23;;;;;;;17.10;9.80;;;;;;;21.54;28.50;101793.64;105321;1287;72455;-90
2022/12/05 13:18:27;;;;;;;19.60;10.10;;;;;;;21.56;28.48;101786.67;105058;1294;67147;-91
2022/12/05 13:20:57;;;;;;;22.10;10.40;;;;;;;21.58;28.64;101784.34;104712;1290;69225;-92
2022/12/05 13:23:33;;;;;;;21.50;11.30;;;;;;;21.59;28.63;101779.70;105698;1294;83208;-91
2022/12/05 13:25:59;;;;;;;15.60;11.60;;;;;;;21.58;28.60;101777.95;105574;1288;72442;-92
2022/12/05 13:28:52;;;;;;;19.00;12.10;;;;;;;21.59;28.70;101775.90;105521;1292;69079;-89
2022/12/05 13:34:32;;;;;;;119.80;16.80;;;;;;;21.60;28.80;101768.43;106383;1285;73146;-89
2022/12/05 13:46:42;;;;;;;52.50;10.60;;;;;;;21.60;30.08;101778.04;106334;1283;68123;-90
2022/12/05 14:01:27;;;;;;;30.30;8.60;;;;;;;21.71;30.84;101783.58;106700;1276;68055;-91
2022/12/05 14:04:00;;;;;;;32.40;8.40;;;;;;;21.73;30.85;101784.90;105919;1294;74395;-88
2022/12/05 14:09:29;;;;;;;33.80;22.50;;;;;;;21.75;30.65;101781.29;105732;1287;71167;-92
2022/12/05 14:12:13;;;;;;;29.80;15.20;;;;;;;21.75;30.54;101782.83;105838;1288;68684;-92
2022/12/05 14:14:54;;;;;;;24.10;13.70;;;;;;;21.74;30.40;101782.56;105726;1287;69106;-92
2022/12/05 14:17:23;;;;;;;21.10;12.40;;;;;;;21.73;30.49;101780.84;106748;1285;74493;-91
2022/12/05 14:22:56;;;;;;;18.40;10.90;;;;;;;21.72;30.27;101778.02;107018;1288;71027;-92
2022/12/05 14:26:00;;;;;;;13.00;9.00;;;;;;;21.71;30.32;101778.30;106586;1291;67988;-92
2022/12/05 14:28:36;;;;;;;12.20;8.80;;;;;;;21.69;30.20;101778.21;106109;1275;68939;-91
2022/12/05 14:31:17;;;;;;;10.60;6.70;;;;;;;21.70;29.99;101778.90;105977;1276;342673;-90
2022/12/05 14:34:23;;;;;;;8.20;5.20;;;;;;;21.71;30.26;101771.69;105913;1282;82012;31
2022/12/05 14:40:21;;;;;;;;;;;;;;;21.79;30.77;101771.87;106053;1282;66870;-91
2022/12/05 14:43:26;;;;;;;6.50;4.90;;;;;;;21.77;30.67;101767.14;105769;1282;68285;31
2022/12/05 14:49:33;;;;;;;8.70;5.40;;;;;;;21.81;30.69;101766.21;105779;1284;82088;-91
2022/12/05 14:52:25;;;;;;;9.70;4.80;;;;;;;21.82;30.64;101764.33;105991;1288;72458;-91
2022/12/05 15:04:13;;;;;;;6.20;4.00;;;;;;;21.87;30.26;101762.85;106419;1275;83678;-91
2022/12/05 15:07:01;;;;;;;6.80;4.20;;;;;;;21.87;30.13;101764.02;106588;1282;72572;-87
2022/12/05 15:11:53;;;;;;;7.60;4.20;;;;;;;21.89;29.98;101767.64;106256;1282;67842;-92
2022/12/05 15:17:25;;;;;;;8.00;4.00;;;;;;;21.91;29.86;101761.29;106614;1276;82619;-90
2022/12/05 15:22:59;;;;;;;7.50;4.20;;;;;;;21.95;29.85;101757.48;106108;1291;68092;-92
2022/12/05 15:25:44;;;;;;;7.80;3.80;;;;;;;21.96;29.86;101758.06;105838;1287;68870;-91
2022/12/05 15:28:19;;;;;;;7.60;4.20;;;;;;;21.98;29.72;101756.52;105786;1278;74408;-92
2022/12/05 15:34:00;;;;;;;7.80;4.20;;;;;;;21.99;29.46;101758.33;106099;1289;71484;-90
2022/12/05 16:04:11;;;;;;;8.50;5.70;;;;;;;22.07;29.38;101768.51;106100;1279;71814;31
2022/12/05 16:09:31;;;;;;;6.00;5.20;;;;;;;22.09;29.43;101759.81;106337;1285;66883;-90
2022/12/05 16:11:58;;;;;;;7.80;4.70;;;;;;;22.08;29.41;101757.44;105842;1284;74243;-91
2022/12/05 16:14:33;;;;;;;8.10;5.20;;;;;;;22.07;29.30;101753.77;106639;1271;82062;-93
2022/12/05 16:19:52;;;;;;;6.90;4.60;;;;;;;22.05;29.35;101759.50;106441;1282;67790;-92
2022/12/05 16:25:23;;;;;;;7.30;4.50;;;;;;;22.03;29.42;101761.97;106041;1283;74490;-92
2022/12/05 16:28:17;;;;;;;8.00;4.60;;;;;;;22.01;29.30;101764.81;105797;1279;80912;-91
2022/12/05 16:30:59;;;;;;;7.10;4.70;;;;;;;21.98;29.35;101758.21;105626;1279;72611;-90
2022/12/05 16:33:29;;;;;;;7.80;4.00;;;;;;;21.96;29.33;101759.05;105844;1287;67378;-90
2022/12/05 16:35:54;;;;;;;7.70;4.70;;;;;;;21.94;29.41;101760.39;105538;1288;68856;-93
2022/12/05 16:38:28;;;;;;;5.70;4.40;;;;;;;21.90;29.37;101760.38;105737;1292;69130;-92
2022/12/05 16:41:01;;;;;;;7.60;4.80;;;;;;;21.87;29.28;101757.84;105456;1288;81905;-92
2022/12/05 16:43:31;;;;;;;9.10;4.40;;;;;;;21.85;29.39;101757.48;105909;1285;72437;-91
2022/12/05 16:45:59;;;;;;;7.50;4.70;;;;;;;21.81;29.36;101758.38;105854;1286;69008;-93
2022/12/05 16:48:30;;;;;;;8.00;4.80;;;;;;;21.78;29.42;101760.81;105870;1276;69020;-90
2022/12/05 16:54:40;;;;;;;9.00;4.70;;;;;;;21.71;29.60;101755.80;105849;1292;81494;-91
2022/12/05 16:57:15;;;;;;;7.20;4.90;;;;;;;21.65;29.56;101755.31;105164;1287;72464;31
2022/12/05 16:59:42;;;;;;;11.10;4.70;;;;;;;21.62;29.53;101753.45;105141;1291;69042;-93
2022/12/05 17:02:16;;;;;;;6.40;5.10;;;;;;;21.60;29.65;101753.65;105281;1287;66824;-90
2022/12/05 17:05:02;;;;;;;9.40;4.70;;;;;;;21.57;29.62;101758.55;105384;1292;74372;-93
2022/12/05 17:07:27;;;;;;;8.10;5.10;;;;;;;21.55;29.64;101756.83;105798;1287;82035;-92
2022/12/05 17:09:53;;;;;;;7.10;4.60;;;;;;;21.52;29.55;101756.73;105230;1285;69227;-90
2022/12/05 17:12:22;;;;;;;6.30;4.40;;;;;;;21.50;29.80;101760.38;105848;1288;69294;-91
2022/12/05 17:14:48;;;;;;;6.60;4.80;;;;;;;21.47;29.90;101761.71;105888;1285;68963;-92
2022/12/05 17:17:15;;;;;;;7.90;4.60;;;;;;;21.44;29.80;101764.84;105690;1295;69308;-92
2022/12/05 17:19:40;;;;;;;5.30;4.30;;;;;;;21.42;29.88;101767.61;105904;1285;69046;-92
2022/12/05 17:22:06;;;;;;;7.70;4.30;;;;;;;21.40;29.99;101770.55;105244;1292;70132;-91
2022/12/05 17:24:42;;;;;;;6.90;4.70;;;;;;;21.37;29.98;101767.38;105777;1294;69259;-91
2022/12/05 17:27:15;;;;;;;6.60;4.10;;;;;;;21.35;29.96;101768.92;105411;1292;68965;31
2022/12/05 17:29:41;;;;;;;6.20;4.40;;;;;;;21.33;29.95;101769.69;105440;1287;74390;-91
2022/12/05 17:32:08;;;;;;;5.50;4.00;;;;;;;21.31;30.11;101764.70;105633;1287;66807;-93
2022/12/05 17:34:34;;;;;;;5.30;4.20;;;;;;;21.30;30.03;101762.12;105571;1284;69111;-91
2022/12/05 17:37:03;;;;;;;6.80;4.50;;;;;;;21.29;30.02;101764.36;105584;1293;69194;-92
2022/12/05 17:39:29;;;;;;;6.30;4.30;;;;;;;21.28;29.97;101764.55;105761;1284;69129;-91
2022/12/05 17:44:20;;;;;;;5.10;4.10;;;;;;;21.27;30.05;101765.48;105485;1282;69349;-92
2022/12/05 17:46:46;;;;;;;6.80;3.60;;;;;;;21.26;29.92;101762.40;105648;1281;69136;-91
2022/12/05 17:49:12;;;;;;;6.00;4.20;;;;;;;21.26;30.10;101760.40;106178;1284;69493;-93
2022/12/05 17:51:39;;;;;;;7.80;4.10;;;;;;;21.26;30.11;101756.96;105933;1288;74458;-93
2022/12/05 17:54:10;;;;;;;5.50;4.20;;;;;;;21.25;30.06;101755.16;105782;1276;82105;-89
2022/12/05 17:56:35;;;;;;;6.00;4.30;;;;;;;21.25;30.16;101753.61;105878;1280;72417;-93
2022/12/05 17:59:01;;;;;;;11.30;6.40;;;;;;;21.25;30.14;101758.29;105203;1288;69078;-93
2022/12/05 18:10:20;;;;;;;8.90;6.60;;;;;;;21.23;30.07;101757.73;106596;1291;71146;-93
2022/12/05 18:12:46;;;;;;;8.30;6.20;;;;;;;21.24;29.91;101759.00;105786;1279;68962;-92
2022/12/05 18:15:19;;;;;;;8.90;6.00;;;;;;;21.23;30.11;101758.45;106002;1276;69097;-92
2022/12/05 18:26:25;;;;;;;8.40;5.60;;;;;;;21.22;30.07;101752.99;105871;1288;67775;-92
2022/12/05 18:28:56;;;;;;;7.60;5.60;;;;;;;21.22;30.12;101754.83;106078;1280;68267;-92
2022/12/05 18:31:21;;;;;;;9.20;5.30;;;;;;;21.22;30.23;101753.05;105836;1279;74278;-93
2022/12/05 18:33:47;;;;;;;7.20;4.90;;;;;;;21.22;30.08;101753.71;106044;1280;67800;-92
2022/12/05 18:36:36;;;;;;;5.90;5.10;;;;;;;21.22;30.16;101748.48;106160;1282;66616;-92
2022/12/05 18:42:14;;;;;;;6.90;5.00;;;;;;;21.21;30.09;101744.17;105778;1291;68961;31
2022/12/05 18:47:20;;;;;;;5.20;4.60;;;;;;;21.21;30.21;101750.21;105942;1287;79965;-92
2022/12/05 18:49:50;;;;;;;5.50;4.70;;;;;;;21.20;30.08;101750.10;105698;1292;69263;-92
2022/12/05 18:52:25;;;;;;;6.40;4.90;;;;;;;21.20;30.19;101748.09;105663;1288;68164;-92
2022/12/05 18:57:45;;;;;;;5.40;4.60;;;;;;;21.19;30.15;101743.33;106384;1275;73614;-90
2022/12/05 19:03:19;;;;;;;5.30;4.40;;;;;;;21.18;30.07;101741.91;106457;1276;74540;-89
2022/12/05 19:08:48;;;;;;;6.20;4.30;;;;;;;21.17;30.17;101739.30;106210;1291;68960;31
2022/12/05 19:11:14;;;;;;;5.90;4.60;;;;;;;21.17;29.99;101738.42;105698;1293;74395;-92
2022/12/05 19:13:40;;;;;;;4.60;4.00;;;;;;;21.17;30.09;101737.15;105701;1278;82997;-92
2022/12/05 19:16:08;;;;;;;6.00;4.30;;;;;;;21.17;30.06;101735.77;105745;1285;66932;-92
2022/12/05 19:21:46;;;;;;;4.60;4.10;;;;;;;21.17;30.05;101732.95;106165;1276;67642;-92
2022/12/05 19:44:07;;;;;;;5.40;4.10;;;;;;;21.20;30.10;101718.32;105880;1285;71178;-92
2022/12/05 19:46:37;;;;;;;5.00;4.00;;;;;;;21.22;30.01;101717.73;105836;1285;69145;-93